Time;durP1;ratioP1;P1;durP2;ratioP2;P2;SDS_P1;SDS_P2;PMS_P1;PMS_P2;Temp;Humidity;BMP_temperature;BMP_pressure;BME280_temperature;BME280_humidity;BME280_pressure;Samples;Min_cycle;Max_cycle;Signal;HPM_P1;HPM_P2
2021/10/09 00:02:15;;;;;;;101.70;94.60;;;10.40;99.90;;;;;;4405791;32;20217;-68
2021/10/09 00:04:42;;;;;;;105.97;98.13;;;10.30;99.90;;;;;;4406666;32;20143;-69
2021/10/09 00:07:09;;;;;;;111.00;103.40;;;10.30;99.90;;;;;;4406539;32;20136;-68
2021/10/09 00:09:36;;;;;;;101.10;93.67;;;10.30;99.90;;;;;;4407787;32;20167;-69
2021/10/09 00:12:05;;;;;;;104.23;96.83;;;10.30;99.90;;;;;;4406807;32;20142;-69
2021/10/09 00:14:32;;;;;;;103.67;95.73;;;10.30;99.90;;;;;;4405884;32;20166;-69
2021/10/09 00:16:59;;;;;;;103.00;95.50;;;10.30;99.90;;;;;;4406443;32;20136;-69
2021/10/09 00:19:27;;;;;;;108.33;99.83;;;10.30;99.90;;;;;;4406650;32;20167;-70
2021/10/09 00:21:54;;;;;;;103.60;96.10;;;10.30;99.90;;;;;;4406114;32;20136;-69
2021/10/09 00:24:21;;;;;;;107.50;99.80;;;10.20;99.90;;;;;;4406164;32;20270;-69
2021/10/09 00:26:49;;;;;;;106.07;98.17;;;10.20;99.90;;;;;;4405949;32;20190;-69
2021/10/09 00:29:16;;;;;;;105.53;97.57;;;10.20;99.90;;;;;;4405836;32;20144;-69
2021/10/09 00:31:44;;;;;;;109.17;101.40;;;10.20;99.90;;;;;;4406498;32;20444;-68
2021/10/09 00:34:11;;;;;;;106.27;98.20;;;10.20;99.90;;;;;;4406115;32;20587;-69
2021/10/09 00:36:39;;;;;;;111.57;103.67;;;10.20;99.90;;;;;;4405975;32;20140;-68
2021/10/09 00:39:06;;;;;;;108.00;99.90;;;10.30;99.90;;;;;;4405241;32;20190;-70
2021/10/09 00:41:33;;;;;;;107.17;99.43;;;10.30;99.90;;;;;;4405758;32;20194;-71
2021/10/09 00:44:09;;;;;;;107.33;99.77;;;10.30;99.90;;;;;;4405801;32;20226;-70
2021/10/09 00:46:37;;;;;;;107.20;99.50;;;10.30;99.90;;;;;;4406946;32;20164;-69
2021/10/09 00:49:05;;;;;;;108.93;100.67;;;10.20;99.90;;;;;;4405228;32;20152;-70
2021/10/09 00:51:33;;;;;;;108.63;100.37;;;10.30;99.90;;;;;;4407381;32;20522;-70
2021/10/09 00:54:02;;;;;;;110.43;102.37;;;10.30;99.90;;;;;;4405504;32;20189;-69
2021/10/09 00:56:31;;;;;;;105.33;97.03;;;10.20;99.90;;;;;;4405985;32;20151;-69
2021/10/09 00:58:59;;;;;;;107.73;99.63;;;10.20;99.90;;;;;;4406452;32;20162;-69
2021/10/09 01:01:26;;;;;;;109.47;101.20;;;10.20;99.90;;;;;;4405630;32;20159;-67
2021/10/09 01:03:53;;;;;;;110.70;102.40;;;10.20;99.90;;;;;;4405497;32;20147;-68
2021/10/09 01:06:20;;;;;;;108.90;100.80;;;10.10;99.90;;;;;;4406121;32;20619;-67
2021/10/09 01:08:50;;;;;;;107.27;99.43;;;10.20;99.90;;;;;;4405802;32;20178;-68
2021/10/09 01:11:18;;;;;;;105.53;97.63;;;10.20;99.90;;;;;;4405795;32;20154;-70
2021/10/09 01:13:45;;;;;;;115.83;107.13;;;10.10;99.90;;;;;;4405012;32;20147;-68
2021/10/09 01:16:30;;;;;;;109.13;101.17;;;10.10;99.90;;;;;;4405796;32;20536;-67
2021/10/09 01:18:58;;;;;;;109.80;101.63;;;10.00;99.90;;;;;;4406178;32;20457;-69
2021/10/09 01:21:30;;;;;;;108.13;100.00;;;10.00;99.90;;;;;;4405983;32;20174;-69
2021/10/09 01:23:56;;;;;;;109.80;101.80;;;10.00;99.90;;;;;;4404827;32;20235;-69
2021/10/09 01:26:23;;;;;;;109.47;101.50;;;10.00;99.90;;;;;;4405437;32;20216;-69
2021/10/09 01:28:52;;;;;;;112.00;103.67;;;10.00;99.90;;;;;;4405092;32;20186;-70
2021/10/09 01:31:20;;;;;;;114.20;104.93;;;10.00;99.90;;;;;;4400358;32;20571;-69
2021/10/09 01:33:47;;;;;;;112.87;104.43;;;10.00;99.90;;;;;;4392326;32;20187;-68
2021/10/09 01:36:17;;;;;;;108.60;100.50;;;10.00;99.90;;;;;;4393428;32;20148;-68
2021/10/09 01:38:51;;;;;;;114.17;105.63;;;10.00;99.90;;;;;;4395653;32;20203;-68
2021/10/09 01:41:18;;;;;;;106.43;98.43;;;10.00;99.90;;;;;;4390121;32;20161;-69
2021/10/09 01:43:45;;;;;;;117.20;108.30;;;10.00;99.90;;;;;;4394601;32;20493;-69
2021/10/09 01:46:15;;;;;;;117.07;108.30;;;10.00;99.90;;;;;;4405384;32;20213;-69
2021/10/09 01:48:43;;;;;;;116.27;107.60;;;10.00;99.90;;;;;;4404902;32;20330;-69
2021/10/09 01:51:11;;;;;;;109.60;100.87;;;10.00;99.90;;;;;;4405100;32;20160;-70
2021/10/09 01:53:40;;;;;;;113.50;104.83;;;10.00;99.90;;;;;;4404863;32;20253;-69
2021/10/09 01:56:09;;;;;;;116.00;107.33;;;10.00;99.90;;;;;;4405076;32;20168;-69
2021/10/09 01:58:36;;;;;;;117.87;108.93;;;10.00;99.90;;;;;;4405328;32;20156;-69
2021/10/09 02:01:03;;;;;;;117.80;109.30;;;9.90;99.90;;;;;;4405217;32;20163;-69
2021/10/09 02:03:30;;;;;;;110.73;102.33;;;9.90;99.90;;;;;;4404828;32;20143;-70
2021/10/09 02:05:58;;;;;;;109.50;101.30;;;9.90;99.90;;;;;;4404778;32;20144;-70
2021/10/09 02:08:25;;;;;;;112.43;103.57;;;9.90;99.90;;;;;;4404024;32;20647;-68
2021/10/09 02:10:56;;;;;;;111.23;103.07;;;9.90;99.90;;;;;;4405606;32;20599;-69
2021/10/09 02:13:29;;;;;;;121.20;112.27;;;9.90;99.90;;;;;;4407838;32;20170;-69
2021/10/09 02:16:05;;;;;;;122.23;113.20;;;9.80;99.90;;;;;;4409136;32;20219;-69
2021/10/09 02:18:39;;;;;;;114.60;106.03;;;9.90;99.90;;;;;;4408263;32;20157;-68
2021/10/09 02:24:26;;;;;;;111.20;102.90;;;9.80;99.90;;;;;;4418702;32;20478;-68
2021/10/09 02:26:53;;;;;;;119.00;110.47;;;9.80;99.90;;;;;;4422585;32;20254;-68
2021/10/09 02:29:23;;;;;;;121.37;112.20;;;9.80;99.90;;;;;;4409893;32;20148;-68
2021/10/09 02:31:51;;;;;;;117.03;108.60;;;9.80;99.90;;;;;;4407706;32;20144;-69
2021/10/09 02:34:17;;;;;;;122.50;113.33;;;9.80;99.90;;;;;;4420020;32;20159;-70
2021/10/09 02:36:44;;;;;;;130.67;121.07;;;9.80;99.90;;;;;;4423525;32;20152;-68
2021/10/09 02:39:11;;;;;;;120.77;112.27;;;9.80;99.90;;;;;;4421038;32;20166;-70
2021/10/09 02:41:38;;;;;;;122.47;113.80;;;9.70;99.90;;;;;;4423345;32;20149;-68
2021/10/09 02:44:06;;;;;;;124.13;115.57;;;9.70;99.90;;;;;;4411401;32;20226;-66
2021/10/09 02:46:34;;;;;;;124.20;115.53;;;9.70;99.90;;;;;;4408226;32;20487;-68
2021/10/09 02:49:01;;;;;;;130.00;120.73;;;9.70;99.90;;;;;;4407781;32;20148;-68
2021/10/09 02:51:28;;;;;;;121.40;112.90;;;9.60;99.90;;;;;;4408620;32;20499;-68
2021/10/09 02:53:56;;;;;;;114.07;105.23;;;9.60;99.90;;;;;;4416299;32;20227;-67
2021/10/09 02:56:22;;;;;;;124.57;115.60;;;9.60;99.90;;;;;;4420706;32;20165;-68
2021/10/09 02:58:49;;;;;;;119.63;111.27;;;9.70;99.90;;;;;;4415073;32;20193;-67
2021/10/09 03:01:16;;;;;;;121.00;112.17;;;9.60;99.90;;;;;;4408960;32;20142;-68
2021/10/09 03:03:44;;;;;;;124.40;115.37;;;9.50;99.90;;;;;;4407614;32;20162;-68
2021/10/09 03:06:11;;;;;;;119.40;110.57;;;9.60;99.90;;;;;;4407930;32;20144;-68
2021/10/09 03:08:40;;;;;;;121.87;112.90;;;9.60;99.90;;;;;;4412254;32;20169;-67
2021/10/09 03:11:07;;;;;;;129.73;120.97;;;9.60;99.90;;;;;;4423324;32;20462;-68
2021/10/09 03:13:37;;;;;;;123.30;114.50;;;9.60;99.90;;;;;;4420879;32;20146;-68
2021/10/09 03:16:04;;;;;;;132.73;123.53;;;9.60;99.90;;;;;;4422616;32;20155;-68
2021/10/09 03:18:32;;;;;;;127.30;118.13;;;9.50;99.90;;;;;;4408264;32;20166;-69
2021/10/09 03:21:00;;;;;;;122.80;113.80;;;9.50;99.90;;;;;;4406518;32;20135;-70
2021/10/09 03:23:27;;;;;;;137.07;127.37;;;9.50;99.90;;;;;;4406964;32;20220;-70
2021/10/09 03:25:54;;;;;;;126.10;117.30;;;9.50;99.90;;;;;;4407407;32;20142;-71
2021/10/09 03:28:22;;;;;;;127.03;117.83;;;9.50;99.90;;;;;;4417479;32;20151;-67
2021/10/09 03:30:49;;;;;;;126.40;117.57;;;9.50;99.90;;;;;;4421750;32;20147;-67
2021/10/09 03:33:16;;;;;;;127.70;118.60;;;9.50;99.90;;;;;;4420291;32;20151;-70
2021/10/09 03:35:43;;;;;;;123.00;113.87;;;9.40;99.90;;;;;;4421893;32;20194;-70
2021/10/09 03:38:11;;;;;;;123.03;113.60;;;9.40;99.90;;;;;;4411849;32;20160;-70
2021/10/09 03:40:40;;;;;;;125.47;116.43;;;9.40;99.90;;;;;;4406647;32;20477;-70
2021/10/09 03:43:09;;;;;;;128.07;118.53;;;9.40;99.90;;;;;;4406439;32;20200;-69
2021/10/09 03:45:40;;;;;;;120.03;110.93;;;9.40;99.90;;;;;;4407111;32;20167;-68
2021/10/09 03:48:16;;;;;;;120.10;110.93;;;9.40;99.90;;;;;;4407881;32;20143;-70
2021/10/09 03:53:31;;;;;;;130.40;121.43;;;9.40;99.90;;;;;;4406536;32;20155;-69
2021/10/09 03:56:02;;;;;;;132.83;123.33;;;9.40;99.90;;;;;;4406187;32;20139;-70
2021/10/09 03:58:29;;;;;;;132.23;122.40;;;9.30;99.90;;;;;;4405769;32;20178;-69
2021/10/09 04:00:58;;;;;;;123.70;114.50;;;9.30;99.90;;;;;;4406377;32;20177;-69
2021/10/09 04:03:25;;;;;;;133.07;123.33;;;9.30;99.90;;;;;;4406639;32;20534;-70
2021/10/09 04:05:52;;;;;;;137.43;127.53;;;9.30;99.90;;;;;;4406304;32;20144;-70
2021/10/09 04:08:18;;;;;;;129.23;119.83;;;9.30;99.90;;;;;;4405501;32;20146;-69
2021/10/09 04:10:49;;;;;;;121.90;112.60;;;9.30;99.90;;;;;;4391069;32;20163;-69
2021/10/09 04:13:17;;;;;;;132.03;122.13;;;9.30;99.90;;;;;;4398679;32;20160;-69
2021/10/09 04:15:44;;;;;;;129.67;120.43;;;9.30;99.90;;;;;;4407907;32;20538;-70
2021/10/09 04:18:11;;;;;;;133.23;123.67;;;9.20;99.90;;;;;;4405549;32;20152;-67
2021/10/09 04:20:38;;;;;;;128.47;119.07;;;9.20;99.90;;;;;;4406281;32;20186;-69
2021/10/09 04:23:05;;;;;;;134.40;124.50;;;9.20;99.90;;;;;;4406792;32;20551;-69
2021/10/09 04:25:33;;;;;;;133.00;123.27;;;9.20;99.90;;;;;;4405914;32;20140;-70
2021/10/09 04:28:02;;;;;;;135.87;125.63;;;9.10;99.90;;;;;;4405495;32;20170;-70
2021/10/09 04:30:29;;;;;;;134.73;124.63;;;9.10;99.90;;;;;;4405705;32;20225;-70
2021/10/09 04:32:55;;;;;;;134.57;124.50;;;9.10;99.90;;;;;;4407235;32;20182;-69
2021/10/09 04:35:25;;;;;;;134.60;124.77;;;9.10;99.90;;;;;;4405440;32;20140;-69
2021/10/09 04:37:52;;;;;;;138.53;129.03;;;9.10;99.90;;;;;;4405228;32;20173;-69
2021/10/09 04:40:19;;;;;;;134.73;125.07;;;9.10;99.90;;;;;;4401336;32;20144;-69
2021/10/09 04:42:46;;;;;;;146.67;135.57;;;9.10;99.90;;;;;;4392769;32;20479;-69
2021/10/09 04:45:14;;;;;;;133.13;123.47;;;9.00;99.90;;;;;;4407038;32;20234;-69
2021/10/09 04:47:40;;;;;;;128.57;118.60;;;9.00;99.90;;;;;;4392215;32;20164;-69
2021/10/09 04:50:09;;;;;;;134.33;124.67;;;9.00;99.90;;;;;;4405159;32;20157;-69
2021/10/09 04:52:36;;;;;;;136.80;126.63;;;9.00;99.90;;;;;;4406129;32;20579;-69
2021/10/09 04:55:05;;;;;;;131.67;122.17;;;9.00;99.90;;;;;;4405316;32;20189;-69
2021/10/09 04:57:37;;;;;;;123.63;114.73;;;9.00;99.90;;;;;;4405444;32;20166;-69
2021/10/09 05:00:10;;;;;;;133.83;124.03;;;9.00;99.90;;;;;;4404996;32;20155;-68
2021/10/09 05:02:38;;;;;;;134.13;124.70;;;9.00;99.90;;;;;;4405144;32;20161;-68
2021/10/09 05:05:06;;;;;;;132.90;122.63;;;8.90;99.90;;;;;;4397830;32;20136;-67
2021/10/09 05:07:32;;;;;;;134.23;124.17;;;8.90;99.90;;;;;;4406250;32;20171;-67
2021/10/09 05:09:59;;;;;;;134.37;124.63;;;8.90;99.90;;;;;;4405306;32;20142;-69
2021/10/09 05:12:26;;;;;;;144.47;134.10;;;8.90;99.90;;;;;;4403198;32;20569;-68
2021/10/09 05:14:53;;;;;;;141.83;131.97;;;8.90;99.90;;;;;;4406196;32;20204;-68
2021/10/09 05:17:22;;;;;;;145.03;134.40;;;8.90;99.90;;;;;;4405245;32;20157;-68
2021/10/09 05:19:50;;;;;;;153.90;142.63;;;8.90;99.90;;;;;;4405292;32;20167;-67
2021/10/09 05:22:17;;;;;;;144.43;134.30;;;8.90;99.90;;;;;;4405391;32;20154;-68
2021/10/09 05:24:44;;;;;;;154.87;143.73;;;8.80;99.90;;;;;;4404992;32;20182;-68
2021/10/09 05:27:15;;;;;;;159.67;148.10;;;8.80;99.90;;;;;;4406138;32;20162;-67
2021/10/09 05:29:42;;;;;;;150.40;139.40;;;8.80;99.90;;;;;;4405637;32;20162;-68
2021/10/09 05:32:19;;;;;;;146.13;135.60;;;8.80;99.90;;;;;;4405423;32;20158;-69
2021/10/09 05:34:46;;;;;;;143.97;133.27;;;8.70;99.90;;;;;;4405452;32;20171;-69
2021/10/09 05:37:17;;;;;;;142.60;132.17;;;8.80;99.90;;;;;;4405285;32;20177;-69
2021/10/09 05:39:43;;;;;;;145.33;134.83;;;8.70;99.90;;;;;;4407172;32;20139;-69
2021/10/09 05:42:11;;;;;;;144.27;133.53;;;8.70;99.90;;;;;;4405233;32;20603;-68
2021/10/09 05:44:42;;;;;;;138.17;127.80;;;8.70;99.90;;;;;;4405215;32;20521;-68
2021/10/09 05:47:12;;;;;;;149.90;138.97;;;8.70;99.90;;;;;;4407656;32;20202;-68
2021/10/09 05:49:39;;;;;;;149.77;138.83;;;8.70;99.90;;;;;;4408252;32;20158;-68
2021/10/09 05:52:23;;;;;;;140.60;130.43;;;8.70;99.90;;;;;;4409311;32;20484;-70
2021/10/09 05:54:58;;;;;;;139.83;129.47;;;8.70;99.90;;;;;;4408920;32;20130;-70
2021/10/09 05:57:33;;;;;;;147.63;136.93;;;8.70;99.90;;;;;;4408063;32;20607;-68
2021/10/09 06:00:18;;;;;;;144.50;133.97;;;8.70;99.90;;;;;;4409753;32;20137;-68
2021/10/09 06:44:32;;;;;;;155.10;144.43;;;8.80;99.90;;;;;;4360387;32;20195;-67
2021/10/09 06:50:16;;;;;;;159.13;147.67;;;8.90;99.90;;;;;;4351311;32;20159;-69
2021/10/09 07:01:10;;;;;;;151.40;140.43;;;9.00;99.90;;;;;;4356309;32;20253;-67
2021/10/09 07:03:38;;;;;;;153.23;141.83;;;9.00;99.90;;;;;;4357344;33;20176;-66
2021/10/09 07:06:06;;;;;;;161.07;149.77;;;9.10;99.90;;;;;;4360850;32;20744;-66
2021/10/09 07:08:33;;;;;;;160.03;148.93;;;9.20;99.90;;;;;;4359918;32;20167;-66
2021/10/09 07:11:03;;;;;;;160.43;149.07;;;9.20;99.90;;;;;;4357795;33;20265;-68
2021/10/09 07:13:30;;;;;;;148.87;137.77;;;9.30;99.90;;;;;;4358495;32;20192;-68
2021/10/09 07:15:57;;;;;;;168.57;156.80;;;9.30;99.90;;;;;;4356212;32;20644;-69
2021/10/09 07:18:25;;;;;;;149.57;139.10;;;9.40;99.90;;;;;;4358655;33;20189;-66
2021/10/09 07:20:52;;;;;;;153.50;142.67;;;9.50;99.90;;;;;;4375558;32;20146;-67
2021/10/09 07:23:18;;;;;;;158.97;147.60;;;9.50;99.90;;;;;;4390630;32;20219;-66
2021/10/09 07:25:48;;;;;;;148.73;138.57;;;9.50;99.90;;;;;;4392414;32;20209;-66
2021/10/09 07:28:15;;;;;;;168.83;157.83;;;9.70;99.90;;;;;;4390952;32;20185;-65
2021/10/09 07:30:43;;;;;;;156.70;146.53;;;9.70;99.90;;;;;;4391358;32;20207;-67
2021/10/09 07:33:11;;;;;;;152.93;142.47;;;9.80;99.90;;;;;;4393187;32;20528;-69
2021/10/09 07:35:39;;;;;;;153.60;143.73;;;9.90;99.90;;;;;;4390858;32;20144;-68
2021/10/09 07:38:06;;;;;;;153.40;143.17;;;10.00;99.90;;;;;;4388853;32;20161;-66
2021/10/09 07:40:33;;;;;;;138.67;128.87;;;10.10;99.90;;;;;;4390506;32;20182;-66
2021/10/09 07:43:00;;;;;;;129.13;119.70;;;10.10;99.90;;;;;;4390779;32;20156;-66
2021/10/09 07:45:27;;;;;;;132.30;122.53;;;10.10;99.90;;;;;;4392127;32;20159;-66
2021/10/09 07:47:54;;;;;;;113.73;105.37;;;10.30;99.90;;;;;;4390086;32;20160;-67
2021/10/09 07:50:21;;;;;;;106.50;97.87;;;10.40;99.90;;;;;;4391450;32;20163;-65
2021/10/09 07:52:49;;;;;;;110.23;102.03;;;10.50;99.90;;;;;;4390148;32;20155;-67
2021/10/09 07:55:16;;;;;;;105.47;96.97;;;10.60;99.90;;;;;;4330710;32;2060821;-65
2021/10/09 07:57:45;;;;;;;108.77;100.17;;;10.80;99.90;;;;;;4407893;32;20174;-67
2021/10/09 08:00:14;;;;;;;102.37;94.07;;;10.90;99.90;;;;;;4406343;32;20148;-67
2021/10/09 08:02:47;;;;;;;94.93;86.70;;;11.10;99.90;;;;;;4406466;32;20170;-67
2021/10/09 08:05:15;;;;;;;94.00;86.13;;;11.30;99.90;;;;;;4405904;32;20185;-67
2021/10/09 08:07:43;;;;;;;93.70;85.53;;;11.40;99.90;;;;;;4405638;32;20148;-67
2021/10/09 08:10:12;;;;;;;90.43;82.73;;;11.50;99.90;;;;;;4404675;32;20199;-68
2021/10/09 08:12:39;;;;;;;89.50;82.07;;;11.50;99.90;;;;;;4406110;32;20179;-67
2021/10/09 08:15:07;;;;;;;84.03;76.73;;;11.70;99.90;;;;;;4405584;32;20167;-67
2021/10/09 08:17:34;;;;;;;84.87;77.27;;;11.80;99.90;;;;;;4405441;32;20471;-67
2021/10/09 08:20:01;;;;;;;84.57;77.30;;;11.90;99.90;;;;;;4404525;32;20231;-66
2021/10/09 08:22:37;;;;;;;81.20;74.07;;;12.10;99.90;;;;;;4404341;32;20148;-66
2021/10/09 08:25:26;;;;;;;83.73;76.50;;;12.00;99.90;;;;;;4403816;32;20572;-66
2021/10/09 08:28:07;;;;;;;85.23;78.00;;;12.10;99.90;;;;;;4403042;32;20674;-67
2021/10/09 08:36:16;;;;;;;82.50;75.20;;;12.20;99.90;;;;;;4375990;32;20188;-65
2021/10/09 08:38:50;;;;;;;83.47;76.07;;;12.10;99.90;;;;;;4379078;32;20194;-67
2021/10/09 08:41:18;;;;;;;89.83;81.90;;;12.10;99.90;;;;;;4371512;32;20152;-67
2021/10/09 08:43:50;;;;;;;88.13;79.83;;;12.00;99.90;;;;;;4380903;32;20284;-66
2021/10/09 08:46:17;;;;;;;88.50;80.97;;;12.00;99.90;;;;;;4378801;32;20240;-66
2021/10/09 08:48:47;;;;;;;86.43;78.87;;;12.20;99.90;;;;;;4379862;32;20163;-66
2021/10/09 08:51:14;;;;;;;85.40;77.87;;;12.50;99.90;;;;;;4378306;32;20235;-66
2021/10/09 08:53:43;;;;;;;84.03;76.70;;;12.90;99.90;;;;;;4379527;32;20233;-66
2021/10/09 08:56:11;;;;;;;89.00;81.27;;;13.00;99.90;;;;;;4379835;32;20219;-66
2021/10/09 08:58:44;;;;;;;86.10;79.20;;;13.00;99.90;;;;;;4379458;32;20219;-66
2021/10/09 09:01:24;;;;;;;83.53;76.83;;;13.00;99.90;;;;;;4380364;32;20537;-65
2021/10/09 09:07:04;;;;;;;85.83;78.33;;;12.70;99.90;;;;;;4336180;33;20153;-66
2021/10/09 09:26:19;;;;;;;91.73;84.13;;;12.80;99.90;;;;;;4367012;32;20513;-66
2021/10/09 09:31:44;;;;;;;86.40;79.33;;;13.00;99.90;;;;;;4330744;33;20233;-66
2021/10/09 09:37:12;;;;;;;84.53;77.90;;;13.20;99.90;;;;;;4298275;33;20201;-66
2021/10/09 09:39:40;;;;;;;84.37;77.43;;;13.40;99.90;;;;;;4299869;33;20154;-66
2021/10/09 09:42:08;;;;;;;85.07;77.97;;;13.70;99.90;;;;;;4301641;33;20233;-66
2021/10/09 09:44:36;;;;;;;79.93;73.57;;;13.80;99.90;;;;;;4320325;33;20232;-66
2021/10/09 09:47:06;;;;;;;82.27;75.50;;;13.60;99.90;;;;;;4321513;33;20610;-66
2021/10/09 09:49:35;;;;;;;79.43;72.97;;;13.50;99.90;;;;;;4322907;33;20626;-66
2021/10/09 09:52:02;;;;;;;84.73;77.90;;;13.30;99.90;;;;;;4320872;33;20173;-66
2021/10/09 09:54:31;;;;;;;78.67;72.37;;;13.30;99.90;;;;;;4323294;33;20586;-66
2021/10/09 09:57:00;;;;;;;77.83;71.50;;;13.30;99.90;;;;;;4331036;33;20617;-66
2021/10/09 09:59:30;;;;;;;79.43;72.67;;;13.30;99.90;;;;;;4326822;33;20204;-66
2021/10/09 10:02:00;;;;;;;78.43;72.27;;;13.40;99.90;;;;;;4322752;33;20358;-66
2021/10/09 10:04:32;;;;;;;77.93;71.00;;;13.50;99.90;;;;;;4324416;33;20243;-66
2021/10/09 10:07:04;;;;;;;77.20;70.93;;;13.50;99.90;;;;;;4321084;33;20162;-66
2021/10/09 10:09:32;;;;;;;78.13;71.63;;;13.60;99.90;;;;;;4352674;33;20251;-66
2021/10/09 10:12:06;;;;;;;76.67;70.67;;;13.70;99.90;;;;;;4359849;33;20238;-66
2021/10/09 10:14:34;;;;;;;78.03;71.53;;;13.70;99.90;;;;;;4393558;32;20231;-66
2021/10/09 10:17:01;;;;;;;81.23;74.83;;;13.60;99.90;;;;;;4407145;32;20468;-67
2021/10/09 10:19:57;;;;;;;74.43;68.50;;;13.80;99.90;;;;;;4407320;32;20155;-66
2021/10/09 10:22:54;;;;;;;77.17;71.27;;;13.90;99.90;;;;;;4405616;32;20148;-66
2021/10/09 10:25:31;;;;;;;75.23;69.20;;;13.90;99.90;;;;;;4405462;32;20510;-66
2021/10/09 10:27:59;;;;;;;73.00;67.30;;;14.00;99.90;;;;;;4399596;32;20249;-65
2021/10/09 10:30:29;;;;;;;74.13;68.33;;;13.90;99.90;;;;;;4405847;32;20226;-66
2021/10/09 10:33:24;;;;;;;73.30;67.70;;;14.00;99.90;;;;;;4404442;32;20164;-65
2021/10/09 10:35:51;;;;;;;71.40;65.90;;;14.10;99.90;;;;;;4406045;32;20144;-65
2021/10/09 10:38:47;;;;;;;70.67;64.73;;;14.10;99.90;;;;;;4404016;32;20254;-65
2021/10/09 10:41:18;;;;;;;69.63;64.03;;;14.10;99.90;;;;;;4399017;32;20231;-66
2021/10/09 10:43:47;;;;;;;69.83;63.97;;;14.10;99.90;;;;;;4403475;32;20152;-65
2021/10/09 10:46:39;;;;;;;71.17;64.93;;;14.10;99.90;;;;;;4395072;32;20151;-66
2021/10/09 10:49:12;;;;;;;67.37;61.87;;;14.20;99.90;;;;;;4407493;32;20152;-66
2021/10/09 10:51:43;;;;;;;63.43;58.23;;;14.10;99.90;;;;;;4406510;32;20164;-66
2021/10/09 10:54:21;;;;;;;70.30;64.37;;;14.20;99.90;;;;;;4391983;32;20139;-66
2021/10/09 10:57:16;;;;;;;68.60;63.07;;;14.30;99.90;;;;;;4405571;32;20490;-66
2021/10/09 10:59:52;;;;;;;69.13;63.37;;;14.30;99.90;;;;;;4406437;32;20204;-66
2021/10/09 11:02:21;;;;;;;68.30;62.93;;;14.40;99.90;;;;;;4406932;32;20208;-65
2021/10/09 11:04:52;;;;;;;64.50;58.93;;;14.40;99.90;;;;;;4408620;32;20233;-66
2021/10/09 11:07:20;;;;;;;66.37;60.87;;;14.50;99.90;;;;;;4407469;32;20142;-66
2021/10/09 11:09:51;;;;;;;67.77;62.33;;;14.40;99.90;;;;;;4408265;32;20194;-66
2021/10/09 11:12:30;;;;;;;65.97;60.70;;;14.40;99.90;;;;;;4407056;32;20552;-65
2021/10/09 11:15:15;;;;;;;64.43;59.33;;;14.40;99.90;;;;;;4407008;32;20209;-66
2021/10/09 11:17:43;;;;;;;67.03;61.80;;;14.50;99.90;;;;;;4407358;32;20159;-66
2021/10/09 11:20:13;;;;;;;67.30;61.97;;;14.60;99.90;;;;;;4406900;32;20464;-66
2021/10/09 11:22:43;;;;;;;63.50;58.40;;;14.70;99.90;;;;;;4407189;32;20167;-66
2021/10/09 11:25:21;;;;;;;62.70;57.50;;;14.70;99.90;;;;;;4406797;32;20230;-66
2021/10/09 11:27:47;;;;;;;66.17;60.67;;;14.70;99.90;;;;;;4404553;32;20493;-66
2021/10/09 11:30:15;;;;;;;65.90;60.43;;;14.80;99.90;;;;;;4395473;32;20140;-66
2021/10/09 11:32:44;;;;;;;63.43;58.50;;;14.80;99.90;;;;;;4395161;32;20588;-66
2021/10/09 11:35:11;;;;;;;63.47;57.93;;;14.80;99.90;;;;;;4393480;32;20159;-66
2021/10/09 11:37:46;;;;;;;64.00;58.50;;;14.80;99.90;;;;;;4398400;32;20158;-66
2021/10/09 11:40:29;;;;;;;68.90;63.20;;;14.80;99.90;;;;;;4393979;32;20139;-66
2021/10/09 11:43:00;;;;;;;59.37;54.47;;;14.80;99.90;;;;;;4391293;32;20448;-66
2021/10/09 11:45:33;;;;;;;61.83;56.37;;;14.80;99.90;;;;;;4391577;32;20157;-66
2021/10/09 11:53:49;;;;;;;60.90;55.57;;;14.90;99.90;;;;;;4400198;32;20216;-66
2021/10/09 11:56:21;;;;;;;57.23;52.27;;;15.00;99.90;;;;;;4394120;32;20588;-66
2021/10/09 11:58:52;;;;;;;56.97;51.80;;;14.90;99.90;;;;;;4399846;32;20159;-65
2021/10/09 12:01:27;;;;;;;57.27;52.07;;;14.90;99.90;;;;;;4392191;32;20159;-66
2021/10/09 12:03:54;;;;;;;53.80;49.10;;;15.00;99.90;;;;;;4391086;32;20152;-65
2021/10/09 12:06:21;;;;;;;56.33;51.53;;;15.10;99.90;;;;;;4392312;32;20500;-66
2021/10/09 12:08:52;;;;;;;59.00;54.03;;;15.10;99.90;;;;;;4391065;32;20482;-65
2021/10/09 12:11:29;;;;;;;56.87;51.53;;;15.10;99.90;;;;;;4391125;32;20234;-66
2021/10/09 12:13:58;;;;;;;57.70;53.07;;;15.20;99.90;;;;;;4392090;32;20178;-66
2021/10/09 12:16:30;;;;;;;54.90;50.37;;;15.20;99.90;;;;;;4392620;32;20136;-65
2021/10/09 12:19:01;;;;;;;55.20;50.60;;;15.20;99.90;;;;;;4391649;32;20496;-65
2021/10/09 12:21:31;;;;;;;57.57;52.07;;;15.30;99.90;;;;;;4390865;32;20263;-66
2021/10/09 12:24:12;;;;;;;54.70;49.57;;;15.30;99.90;;;;;;4392623;32;20501;-66
2021/10/09 12:27:00;;;;;;;53.13;48.63;;;15.30;99.90;;;;;;4390966;32;20543;-66
2021/10/09 12:29:27;;;;;;;54.27;49.60;;;15.40;99.90;;;;;;4391328;32;20190;-66
2021/10/09 12:31:57;;;;;;;53.83;49.33;;;15.40;99.90;;;;;;4390777;32;20160;-66
2021/10/09 12:34:32;;;;;;;53.57;49.00;;;15.50;99.90;;;;;;4390795;32;20144;-66
2021/10/09 12:37:18;;;;;;;55.00;50.20;;;15.50;99.90;;;;;;4391119;32;20230;-65
2021/10/09 12:39:47;;;;;;;55.87;50.83;;;15.50;99.90;;;;;;4390701;32;20156;-65
2021/10/09 12:42:17;;;;;;;55.80;51.40;;;15.50;99.90;;;;;;4391468;32;20159;-66
2021/10/09 12:44:45;;;;;;;54.13;49.10;;;15.60;99.90;;;;;;4390690;32;20155;-64
2021/10/09 12:47:17;;;;;;;51.50;47.07;;;15.60;99.90;;;;;;4390668;32;20156;-66
2021/10/09 12:49:46;;;;;;;54.00;49.70;;;15.60;99.90;;;;;;4391606;32;20216;-66
2021/10/09 12:52:12;;;;;;;54.60;49.73;;;15.60;99.90;;;;;;4392014;32;20505;-66
2021/10/09 12:54:39;;;;;;;51.30;47.10;;;15.70;99.90;;;;;;4390150;32;20140;-66
2021/10/09 12:57:10;;;;;;;56.30;51.67;;;15.70;99.90;;;;;;4391903;32;20429;-66
2021/10/09 12:59:38;;;;;;;53.40;48.90;;;15.70;99.90;;;;;;4390651;32;20144;-66
2021/10/09 13:02:05;;;;;;;55.27;50.47;;;15.70;99.90;;;;;;4391155;32;20148;-64
2021/10/09 13:04:32;;;;;;;57.47;52.63;;;15.70;99.90;;;;;;4390152;32;20148;-66
2021/10/09 13:07:01;;;;;;;52.57;47.90;;;15.70;99.90;;;;;;4390754;32;20173;-65
2021/10/09 13:09:30;;;;;;;56.47;51.63;;;15.70;99.90;;;;;;4390039;32;20157;-64
2021/10/09 13:11:58;;;;;;;58.00;53.03;;;15.60;99.90;;;;;;4389835;32;20194;-66
2021/10/09 13:14:32;;;;;;;57.80;52.93;;;15.60;99.90;;;;;;4389888;32;20140;-66
2021/10/09 13:17:03;;;;;;;50.53;45.97;;;15.60;99.90;;;;;;4392283;32;20178;-66
2021/10/09 13:19:31;;;;;;;54.43;49.27;;;15.60;99.90;;;;;;4405455;32;20139;-66
2021/10/09 13:22:03;;;;;;;54.33;49.20;;;15.60;99.90;;;;;;4406390;32;20187;-66
2021/10/09 13:24:34;;;;;;;54.40;49.67;;;15.60;99.90;;;;;;4406978;32;20136;-66
2021/10/09 13:27:04;;;;;;;52.23;47.53;;;15.70;99.90;;;;;;4405405;32;20502;-64
2021/10/09 13:29:31;;;;;;;52.20;47.50;;;15.80;99.90;;;;;;4404713;32;20163;-66
2021/10/09 13:32:00;;;;;;;54.07;49.33;;;15.80;99.90;;;;;;4406493;32;20218;-66
2021/10/09 13:34:28;;;;;;;52.30;48.00;;;15.80;99.90;;;;;;4405039;32;20148;-66
2021/10/09 13:36:55;;;;;;;51.23;47.03;;;15.80;99.90;;;;;;4405438;32;20166;-66
2021/10/09 13:39:22;;;;;;;54.07;49.67;;;15.80;99.90;;;;;;4406769;32;20414;-66
2021/10/09 13:41:49;;;;;;;51.07;46.43;;;15.80;99.90;;;;;;4405642;32;20219;-66
2021/10/09 13:44:16;;;;;;;51.10;46.53;;;15.80;99.90;;;;;;4405185;32;20163;-66
2021/10/09 13:46:45;;;;;;;51.80;47.17;;;15.90;99.90;;;;;;4405910;32;20178;-67
2021/10/09 13:49:12;;;;;;;48.83;44.57;;;15.90;99.90;;;;;;4405284;32;20164;-65
2021/10/09 13:51:40;;;;;;;50.63;46.03;;;15.90;99.90;;;;;;4405049;32;20158;-65
2021/10/09 13:54:07;;;;;;;49.17;44.67;;;15.90;99.90;;;;;;4405039;32;20155;-67
2021/10/09 13:56:33;;;;;;;50.20;45.37;;;15.90;99.90;;;;;;4404957;32;20156;-67
2021/10/09 13:59:00;;;;;;;49.63;45.50;;;15.90;99.90;;;;;;4405392;32;20164;-67
2021/10/09 14:01:27;;;;;;;49.40;45.13;;;15.90;99.90;;;;;;4405056;32;20159;-64
2021/10/09 14:03:55;;;;;;;51.20;46.57;;;15.90;99.90;;;;;;4404020;32;20569;-64
2021/10/09 14:06:22;;;;;;;49.77;45.00;;;15.90;99.90;;;;;;4405541;32;20227;-66
2021/10/09 14:08:55;;;;;;;49.40;44.90;;;15.90;99.90;;;;;;4409211;32;20576;-67
2021/10/09 14:11:22;;;;;;;50.53;46.13;;;15.80;99.90;;;;;;4408331;32;20640;-65